createdAt,value
2022-10-16T07:41:15.475Z,17.40
2022-10-16T07:43:47.470Z,17.50
2022-10-16T07:46:15.059Z,18.00
2022-10-16T07:48:41.849Z,18.20
2022-10-16T07:51:08.598Z,18.20
2022-10-16T07:53:35.346Z,18.50
2022-10-16T07:56:03.384Z,18.70
2022-10-16T07:58:30.707Z,18.80
2022-10-16T08:00:57.702Z,19.00
2022-10-16T08:03:24.880Z,19.20
2022-10-16T08:05:51.713Z,19.30
2022-10-16T08:08:19.051Z,19.70
2022-10-16T08:10:46.259Z,19.70
2022-10-16T08:13:16.236Z,19.90
2022-10-16T08:15:43.826Z,20.20
2022-10-16T08:18:12.270Z,20.40
2022-10-16T08:20:39.850Z,20.20
2022-10-16T08:23:06.671Z,20.20
2022-10-16T08:25:35.553Z,20.40
2022-10-16T08:28:03.980Z,20.80
2022-10-16T08:30:30.688Z,21.00
2022-10-16T08:32:59.091Z,21.20
2022-10-16T08:35:25.882Z,21.10
2022-10-16T08:37:52.682Z,21.20
2022-10-16T08:40:20.794Z,21.40
2022-10-16T08:42:56.526Z,21.50
2022-10-16T08:45:23.189Z,21.50
2022-10-16T08:47:53.310Z,21.60
2022-10-16T08:50:24.987Z,21.80
2022-10-16T08:52:51.977Z,21.80
2022-10-16T08:55:21.705Z,22.00
2022-10-16T08:57:48.383Z,21.90
2022-10-16T09:00:15.793Z,21.90
2022-10-16T09:02:49.701Z,22.00
2022-10-16T09:05:16.391Z,22.20
2022-10-16T09:07:43.073Z,22.00
2022-10-16T09:10:28.568Z,22.20
2022-10-16T09:13:10.450Z,22.50
2022-10-16T09:15:40.184Z,22.50
2022-10-16T09:18:29.955Z,22.30
2022-10-16T09:21:08.609Z,22.50
2022-10-16T09:23:38.793Z,22.50
2022-10-16T09:26:10.487Z,22.50
2022-10-16T09:28:37.401Z,22.20
2022-10-16T09:31:04.186Z,22.40
2022-10-16T09:33:33.962Z,22.60
2022-10-16T09:36:00.676Z,22.70
2022-10-16T09:38:28.961Z,22.40
2022-10-16T09:41:02.366Z,22.40
2022-10-16T09:43:36.082Z,22.60
2022-10-16T09:46:02.858Z,22.80
2022-10-16T09:48:34.767Z,23.00
2022-10-16T09:51:02.781Z,23.00
2022-10-16T09:53:45.783Z,23.00
2022-10-16T09:56:14.922Z,22.90
2022-10-16T09:58:50.263Z,23.00
2022-10-16T10:01:17.011Z,23.30
2022-10-16T10:03:44.582Z,23.20
2022-10-16T10:06:19.405Z,23.10
2022-10-16T10:08:56.844Z,23.00
2022-10-16T10:11:42.035Z,22.90
2022-10-16T10:14:17.836Z,22.90
2022-10-16T10:16:45.480Z,22.90
2022-10-16T10:19:22.782Z,22.90
2022-10-16T10:21:51.230Z,22.80
2022-10-16T10:24:19.483Z,22.60
2022-10-16T10:27:00.986Z,22.70
2022-10-16T10:29:43.455Z,22.70
2022-10-16T10:32:28.635Z,22.90
2022-10-16T10:35:15.682Z,23.00
2022-10-16T10:37:51.167Z,23.10
2022-10-16T10:40:30.401Z,23.20
2022-10-16T10:43:16.072Z,23.20
2022-10-16T10:45:52.403Z,23.30
2022-10-16T10:48:49.346Z,23.20
2022-10-16T10:51:22.546Z,22.70
2022-10-16T10:53:55.268Z,22.10
2022-10-16T10:56:40.515Z,22.20
2022-10-16T10:59:07.366Z,22.40
2022-10-16T11:01:34.082Z,22.60
2022-10-16T11:04:10.025Z,22.60
2022-10-16T11:06:40.748Z,22.70
2022-10-16T11:09:13.534Z,22.80
2022-10-16T11:11:46.319Z,23.00
2022-10-16T11:14:16.030Z,23.00
2022-10-16T11:16:57.803Z,22.90
2022-10-16T11:19:40.909Z,22.70
2022-10-16T11:22:20.573Z,22.70
2022-10-16T11:25:01.076Z,22.80
2022-10-16T11:27:32.966Z,22.80
2022-10-16T11:30:02.081Z,22.70
2022-10-16T11:32:32.921Z,22.50
2022-10-16T11:35:03.178Z,22.10
2022-10-16T11:37:39.296Z,21.70
2022-10-16T11:40:27.060Z,21.50
2022-10-16T11:42:58.158Z,21.30
2022-10-16T11:45:35.442Z,21.40
2022-10-16T11:48:22.646Z,21.60
2022-10-16T11:51:04.661Z,21.70
2022-10-16T11:53:44.490Z,21.80
2022-10-16T11:56:21.475Z,22.00
2022-10-16T11:58:49.669Z,22.00
2022-10-16T12:01:19.471Z,22.00
2022-10-16T12:03:52.505Z,22.00
2022-10-16T12:06:26.281Z,22.10
2022-10-16T12:08:54.779Z,22.10
2022-10-16T12:11:40.608Z,22.20
2022-10-16T12:14:13.933Z,22.10
2022-10-16T12:17:01.052Z,22.00
2022-10-16T12:19:29.608Z,22.10
2022-10-16T12:21:59.926Z,22.20
2022-10-16T12:24:35.872Z,22.20
2022-10-16T12:27:02.923Z,22.20
2022-10-16T12:29:29.636Z,22.00
2022-10-16T12:31:58.522Z,21.80
2022-10-16T12:34:43.007Z,21.40
2022-10-16T12:37:15.461Z,20.90
2022-10-16T12:39:43.864Z,20.70
2022-10-16T12:42:25.100Z,20.50
2022-10-16T12:44:52.208Z,20.30
2022-10-16T12:47:36.590Z,20.10
2022-10-16T12:50:09.059Z,20.10
2022-10-16T12:52:39.120Z,19.90
2022-10-16T12:55:06.986Z,19.90
2022-10-16T12:57:39.449Z,20.00
2022-10-16T13:00:06.520Z,20.10
2022-10-16T13:02:39.091Z,20.40
2022-10-16T13:05:05.829Z,20.60
2022-10-16T13:07:32.494Z,20.90
2022-10-16T13:09:59.203Z,21.00
2022-10-16T13:13:01.454Z,21.20
2022-10-16T13:15:46.186Z,21.50
2022-10-16T13:18:31.930Z,21.90
2022-10-16T13:21:05.159Z,22.00
2022-10-16T13:23:36.978Z,22.10
2022-10-16T13:26:07.097Z,22.00
2022-10-16T13:28:35.881Z,21.50
2022-10-16T13:31:03.710Z,21.10
2022-10-16T13:33:33.780Z,20.70
2022-10-16T13:36:01.057Z,20.30
2022-10-16T13:38:33.326Z,19.90
2022-10-16T13:41:01.695Z,19.70
2022-10-16T13:43:34.877Z,19.50
2022-10-16T13:46:02.988Z,19.40
2022-10-16T13:48:30.574Z,19.30
2022-10-16T13:54:12.652Z,19.10
2022-10-16T13:56:40.453Z,19.10
2022-10-16T13:59:23.350Z,19.30
2022-10-16T14:01:52.055Z,19.40
2022-10-16T14:04:19.290Z,19.60
2022-10-16T14:06:47.665Z,19.50
2022-10-16T14:09:21.317Z,19.50
2022-10-16T14:11:59.145Z,19.40
2022-10-16T14:14:28.019Z,19.40
2022-10-16T14:16:55.256Z,19.20
2022-10-16T14:19:25.043Z,19.00
2022-10-16T14:21:52.919Z,18.90
2022-10-16T14:24:27.595Z,18.80
2022-10-16T14:26:57.485Z,18.80
2022-10-16T14:29:25.436Z,18.80
2022-10-16T14:31:59.697Z,18.60
2022-10-16T14:34:33.883Z,18.60
2022-10-16T14:37:05.731Z,18.70
2022-10-16T14:39:35.681Z,18.60
2022-10-16T14:42:02.576Z,18.60
2022-10-16T14:44:32.266Z,18.50
2022-10-16T14:47:00.781Z,18.50
2022-10-16T14:49:29.238Z,18.70
2022-10-16T14:51:56.610Z,18.80
2022-10-16T14:54:23.436Z,18.90
2022-10-16T14:57:00.131Z,18.90
2022-10-16T14:59:40.382Z,18.90
2022-10-16T15:02:17.312Z,18.70
2022-10-16T15:04:44.291Z,18.70
2022-10-16T15:07:11.182Z,18.70
2022-10-16T15:09:38.067Z,18.70
2022-10-16T15:12:05.231Z,18.70
2022-10-16T15:14:32.160Z,18.80
2022-10-16T15:16:59.112Z,18.80
2022-10-16T15:19:26.129Z,18.80
2022-10-16T15:21:53.473Z,18.80
2022-10-16T15:24:21.710Z,18.80
2022-10-16T15:26:48.640Z,18.70
2022-10-16T15:29:15.569Z,18.70
2022-10-16T15:31:43.844Z,18.60
2022-10-16T15:34:11.154Z,18.60
2022-10-16T15:36:39.306Z,18.60
2022-10-16T15:39:17.088Z,18.70
2022-10-16T15:41:44.467Z,18.80
2022-10-16T15:44:11.761Z,18.80
2022-10-16T15:46:39.230Z,18.90
2022-10-16T15:49:06.222Z,19.00
2022-10-16T15:51:34.209Z,18.90
2022-10-16T15:54:02.958Z,18.70
2022-10-16T15:56:34.107Z,18.60
2022-10-16T15:59:02.366Z,18.50
2022-10-16T16:01:30.550Z,18.50
2022-10-16T16:03:57.911Z,18.60
2022-10-16T16:06:25.043Z,18.60
2022-10-16T16:08:52.606Z,18.50
2022-10-16T16:11:19.528Z,18.40
2022-10-16T16:13:46.472Z,18.20
2022-10-16T16:16:14.839Z,18.20
2022-10-16T16:18:42.399Z,18.00
2022-10-16T16:21:10.673Z,18.10
2022-10-16T16:23:37.725Z,18.00
2022-10-16T16:26:07.615Z,18.10
2022-10-16T16:28:34.754Z,18.00
2022-10-16T16:31:01.655Z,17.90
2022-10-16T16:33:28.630Z,17.80
2022-10-16T16:36:01.043Z,17.70
2022-10-16T16:38:28.681Z,17.60
2022-10-16T16:40:56.487Z,17.60
2022-10-16T16:43:24.511Z,17.50
2022-10-16T16:45:51.920Z,17.50
2022-10-16T16:48:18.849Z,17.50
2022-10-16T16:50:45.617Z,17.50
2022-10-16T16:53:12.300Z,17.50
2022-10-16T16:55:39.174Z,17.50
2022-10-16T16:58:05.989Z,17.50
2022-10-16T17:00:32.855Z,17.50
2022-10-16T17:03:00.228Z,17.50
2022-10-16T17:05:30.177Z,17.50
2022-10-16T17:07:56.918Z,17.50
2022-10-16T17:10:23.662Z,17.50
2022-10-16T17:12:50.520Z,17.50
2022-10-16T17:15:17.246Z,17.40
2022-10-16T17:17:44.054Z,17.30
2022-10-16T17:20:11.418Z,17.20
2022-10-16T17:22:38.829Z,17.00
2022-10-16T17:25:07.892Z,17.00
2022-10-16T17:27:36.434Z,16.90
2022-10-16T17:30:04.712Z,16.90
2022-10-16T17:32:31.633Z,16.90
2022-10-16T17:34:58.390Z,16.90
2022-10-16T17:37:25.240Z,17.00
2022-10-16T17:39:52.577Z,17.00
2022-10-16T17:42:19.413Z,17.00
2022-10-16T17:44:46.428Z,17.00
2022-10-16T17:47:13.166Z,17.00
2022-10-16T17:49:39.983Z,17.00
2022-10-16T17:52:07.272Z,17.00
2022-10-16T17:54:34.495Z,16.90
2022-10-16T17:57:01.232Z,16.90
2022-10-16T17:59:29.338Z,16.90
2022-10-16T18:01:56.310Z,16.80
2022-10-16T18:04:23.158Z,16.80
2022-10-16T18:06:49.965Z,16.70
2022-10-16T18:09:18.270Z,16.70
2022-10-16T18:11:45.295Z,16.70
2022-10-16T18:14:13.346Z,16.50
2022-10-16T18:16:40.080Z,16.50
2022-10-16T18:19:07.452Z,16.50
2022-10-16T18:21:34.178Z,16.50
2022-10-16T18:24:01.886Z,16.50
2022-10-16T18:26:28.820Z,16.60
2022-10-16T18:28:56.670Z,16.60
2022-10-16T18:31:23.905Z,16.50
2022-10-16T18:33:51.453Z,16.50
2022-10-16T18:36:19.888Z,16.50
2022-10-16T18:38:46.605Z,16.50
2022-10-16T18:41:13.882Z,16.60
2022-10-16T18:43:41.504Z,16.60
2022-10-16T18:46:09.866Z,16.70
2022-10-16T18:48:37.866Z,16.70
2022-10-16T18:51:08.394Z,16.70
2022-10-16T18:53:35.573Z,16.70
2022-10-16T18:56:02.645Z,16.70
2022-10-16T18:58:29.494Z,16.70
2022-10-16T19:00:56.158Z,16.50
2022-10-16T19:03:23.234Z,16.40
2022-10-16T19:05:49.970Z,16.10
2022-10-16T19:08:16.741Z,15.90
2022-10-16T19:10:43.552Z,15.80
2022-10-16T19:13:11.094Z,15.60
2022-10-16T19:15:41.700Z,15.50
2022-10-16T19:18:08.546Z,15.30
2022-10-16T19:20:35.243Z,15.20
2022-10-16T19:23:02.523Z,15.00
2022-10-16T19:25:29.278Z,14.90
2022-10-16T19:27:56.727Z,14.80
2022-10-16T19:30:24.175Z,14.80
2022-10-16T19:32:52.971Z,14.80
2022-10-16T19:35:19.982Z,14.80
2022-10-16T19:37:49.702Z,14.80
2022-10-16T19:40:16.448Z,14.80
2022-10-16T19:42:45.193Z,14.70
2022-10-16T19:45:11.979Z,14.70
